Honaker, Virginia
Current Conditions -  °F | °C
As of 11:35 PM on Thursday 18 Dec 2014 (Local Time) from KJFZ Reporting Station
Overcast Overcast  
Wind Chill: -3°   Ceiling: 4600
Heat Index:   Visibility: 10mi
Dew Point: -5°   Wind: 6mph
Humidity: 69%   Direction: 310°NW
Pressure: 30.11"   Gusts: NA
Location:  37.02°N, 81.97°W
Report Text: KJFZ 190435Z AUTO 31005KT 10SM OVC046 00/M05 A3011 RMK AO2 T00001050
Loading
Personal Weather Stations






























Interactive Weather Map New forecast layout! Learn more

10-Day Weather Forecast

Advertisements
Track Severe Weather on mobile